This is the latest recevied weather packets stored in our database for station/object BMCB-2. If no packets are shown the sender has not sent any weather packets the latest 10 day(s).
| Time | Temp. | Humidity | Pressure | Rain* | Wind** | Luminosity | Snow |
|---|---|---|---|---|---|---|---|
| 1778194267 | 10° C | 94% | 1018.6 hPa | 0 mm | - | 0 W/m² | - |
| 1778180468 | 11.11° C | 83% | 1017.6 hPa | 0 mm | - | 2 W/m² | - |
| 1778179268 | 11.67° C | 81% | 1017.4 hPa | 0 mm | - | 8 W/m² | - |
| 1778178073 | 11.67° C | 79% | 1017.4 hPa | 0 mm | - | 14 W/m² | - |
| 1778175670 | 12.78° C | 72% | 1017.2 hPa | 0 mm | - | 34 W/m² | - |
| 1778172070 | 12.78° C | 65% | 1017 hPa | 0 mm | - | 78 W/m² | - |
| 1778162466 | 12.78° C | 68% | 1017.2 hPa | 0 mm | - | 416 W/m² | - |
| 1778160661 | 12.78° C | 68% | 1017.3 hPa | 0 mm | - | 308 W/m² | - |
| 1778152863 | 12.22° C | 71% | 1017.2 hPa | 0 mm | - | 280 W/m² | - |
| 1778152262 | 12.22° C | 71% | 1017.3 hPa | 0 mm | - | 288 W/m² | - |
| 1778143260 | 10.56° C | 80% | 1017.1 hPa | 0 mm | - | 566 W/m² | - |
| 1778140262 | 9.44° C | 83% | 1017 hPa | 0 mm | - | 272 W/m² | - |
| 1778139661 | 9.44° C | 84% | 1017 hPa | 0 mm | - | 264 W/m² | - |
| 1778136058 | 8.33° C | 88% | 1016.8 hPa | 0 mm | - | 98 W/m² | - |
| 1778134857 | 8.33° C | 90% | 1016.6 hPa | 0 mm | - | 100 W/m² | - |
| 1778134257 | 8.33° C | 90% | 1016.5 hPa | 0 mm | - | 102 W/m² | - |
| 1778133656 | 7.78° C | 91% | 1016.5 hPa | 0 mm | - | 82 W/m² | - |
| 1778128857 | 7.22° C | 98% | 1015.9 hPa | 0 mm | - | 8 W/m² | - |
| 1778124655 | 7.22° C | 95% | 1015.4 hPa | 0 mm | - | 0 W/m² | - |
| 1778124057 | 7.22° C | 95% | 1015.4 hPa | 0 mm | - | 0 W/m² | - |
| 1778118656 | 7.22° C | 96% | 1014.9 hPa | 0 mm | - | 0 W/m² | - |
| 1778115058 | 7.22° C | 97% | 1014.8 hPa | 0 mm | - | 0 W/m² | - |
| 1778113256 | 7.22° C | 97% | 1014.7 hPa | 0 mm | - | 0 W/m² | - |
| 1778109063 | 7.22° C | 95% | 1014.4 hPa | 0 mm | - | 0 W/m² | - |
| 1778106064 | 6.67° C | 95% | 1014 hPa | 0 mm | - | 0 W/m² | - |
* Rain latest hour (hover to see other rain measurements)
** Current wind speed in m/s (hover to see current wind gust speed)